sensor_id;sensor_type;location;lat;lon;timestamp;temperature;humidity
32640;DHT22;19049;52.524;11.468;2022-10-15T00:02:13;16.70;90.40
32640;DHT22;19049;52.524;11.468;2022-10-15T00:04:38;16.80;90.60
32640;DHT22;19049;52.524;11.468;2022-10-15T00:07:04;16.80;90.60
32640;DHT22;19049;52.524;11.468;2022-10-15T00:09:30;16.70;90.50
32640;DHT22;19049;52.524;11.468;2022-10-15T00:11:56;16.70;90.50
32640;DHT22;19049;52.524;11.468;2022-10-15T00:14:21;16.70;90.50
32640;DHT22;19049;52.524;11.468;2022-10-15T00:16:47;16.70;90.60
32640;DHT22;19049;52.524;11.468;2022-10-15T00:19:13;16.70;90.60
32640;DHT22;19049;52.524;11.468;2022-10-15T00:21:39;16.70;90.60
32640;DHT22;19049;52.524;11.468;2022-10-15T00:24:05;16.70;90.70
32640;DHT22;19049;52.524;11.468;2022-10-15T00:26:31;16.70;90.70
32640;DHT22;19049;52.524;11.468;2022-10-15T00:29:02;16.70;90.70
32640;DHT22;19049;52.524;11.468;2022-10-15T00:31:29;16.70;90.70
32640;DHT22;19049;52.524;11.468;2022-10-15T00:33:57;16.70;90.70
32640;DHT22;19049;52.524;11.468;2022-10-15T00:36:25;16.70;90.80
32640;DHT22;19049;52.524;11.468;2022-10-15T00:38:52;16.70;90.80
32640;DHT22;19049;52.524;11.468;2022-10-15T00:41:29;16.70;90.80
32640;DHT22;19049;52.524;11.468;2022-10-15T00:43:56;16.70;90.80
32640;DHT22;19049;52.524;11.468;2022-10-15T00:46:39;16.70;90.90
32640;DHT22;19049;52.524;11.468;2022-10-15T00:49:25;16.60;90.80
32640;DHT22;19049;52.524;11.468;2022-10-15T00:52:02;16.60;90.90
32640;DHT22;19049;52.524;11.468;2022-10-15T00:54:33;16.60;90.90
32640;DHT22;19049;52.524;11.468;2022-10-15T00:57:01;16.60;90.90
32640;DHT22;19049;52.524;11.468;2022-10-15T00:59:28;16.60;91.00
32640;DHT22;19049;52.524;11.468;2022-10-15T01:01:59;16.50;90.90
32640;DHT22;19049;52.524;11.468;2022-10-15T01:04:26;16.50;91.00
32640;DHT22;19049;52.524;11.468;2022-10-15T01:06:52;16.50;90.90
32640;DHT22;19049;52.524;11.468;2022-10-15T01:09:18;16.50;90.90
32640;DHT22;19049;52.524;11.468;2022-10-15T01:11:49;16.40;90.90
32640;DHT22;19049;52.524;11.468;2022-10-15T01:14:27;16.40;91.00
32640;DHT22;19049;52.524;11.468;2022-10-15T01:22:18;16.30;90.90
32640;DHT22;19049;52.524;11.468;2022-10-15T01:25:12;16.20;91.10
32640;DHT22;19049;52.524;11.468;2022-10-15T01:27:44;16.20;91.10
32640;DHT22;19049;52.524;11.468;2022-10-15T01:30:25;16.20;91.10
32640;DHT22;19049;52.524;11.468;2022-10-15T01:33:38;16.10;91.10
32640;DHT22;19049;52.524;11.468;2022-10-15T01:36:09;16.10;91.20
32640;DHT22;19049;52.524;11.468;2022-10-15T01:38:54;16.00;91.10
32640;DHT22;19049;52.524;11.468;2022-10-15T01:41:42;16.00;91.30
32640;DHT22;19049;52.524;11.468;2022-10-15T01:44:16;16.00;91.50
32640;DHT22;19049;52.524;11.468;2022-10-15T01:47:03;16.00;91.40
32640;DHT22;19049;52.524;11.468;2022-10-15T01:49:32;15.90;91.40
32640;DHT22;19049;52.524;11.468;2022-10-15T01:52:02;15.90;91.40
32640;DHT22;19049;52.524;11.468;2022-10-15T01:54:29;15.90;91.40
32640;DHT22;19049;52.524;11.468;2022-10-15T01:56:55;15.90;91.70
32640;DHT22;19049;52.524;11.468;2022-10-15T01:59:25;15.80;91.50
32640;DHT22;19049;52.524;11.468;2022-10-15T02:01:53;15.80;91.70
32640;DHT22;19049;52.524;11.468;2022-10-15T02:04:24;15.80;91.60
32640;DHT22;19049;52.524;11.468;2022-10-15T02:07:06;15.80;91.70
32640;DHT22;19049;52.524;11.468;2022-10-15T02:09:54;15.70;91.70
32640;DHT22;19049;52.524;11.468;2022-10-15T02:14:59;15.70;91.60
32640;DHT22;19049;52.524;11.468;2022-10-15T02:17:57;15.70;91.80
32640;DHT22;19049;52.524;11.468;2022-10-15T02:20:33;15.60;91.80
32640;DHT22;19049;52.524;11.468;2022-10-15T02:23:23;15.60;91.70
32640;DHT22;19049;52.524;11.468;2022-10-15T02:25:51;15.60;91.80
32640;DHT22;19049;52.524;11.468;2022-10-15T02:28:18;15.50;91.60
32640;DHT22;19049;52.524;11.468;2022-10-15T02:30:48;15.50;91.60
32640;DHT22;19049;52.524;11.468;2022-10-15T02:33:17;15.50;91.70
32640;DHT22;19049;52.524;11.468;2022-10-15T02:35:44;15.50;91.70
32640;DHT22;19049;52.524;11.468;2022-10-15T02:38:12;15.40;91.70
32640;DHT22;19049;52.524;11.468;2022-10-15T02:40:41;15.40;91.80
32640;DHT22;19049;52.524;11.468;2022-10-15T02:43:10;15.40;91.80
32640;DHT22;19049;52.524;11.468;2022-10-15T02:45:37;15.40;91.90
32640;DHT22;19049;52.524;11.468;2022-10-15T02:48:06;15.30;91.80
32640;DHT22;19049;52.524;11.468;2022-10-15T02:50:32;15.30;91.80
32640;DHT22;19049;52.524;11.468;2022-10-15T02:52:58;15.30;91.90
32640;DHT22;19049;52.524;11.468;2022-10-15T02:55:23;15.30;91.90
32640;DHT22;19049;52.524;11.468;2022-10-15T02:57:49;15.20;91.90
32640;DHT22;19049;52.524;11.468;2022-10-15T03:00:15;15.20;92.00
32640;DHT22;19049;52.524;11.468;2022-10-15T03:02:43;15.20;92.00
32640;DHT22;19049;52.524;11.468;2022-10-15T03:05:09;15.20;92.20
32640;DHT22;19049;52.524;11.468;2022-10-15T03:07:34;15.20;92.30
32640;DHT22;19049;52.524;11.468;2022-10-15T03:10:00;15.20;92.30
32640;DHT22;19049;52.524;11.468;2022-10-15T03:12:26;15.20;92.30
32640;DHT22;19049;52.524;11.468;2022-10-15T03:14:52;15.20;92.40
32640;DHT22;19049;52.524;11.468;2022-10-15T03:17:18;15.30;92.40
32640;DHT22;19049;52.524;11.468;2022-10-15T03:19:44;15.30;92.40
32640;DHT22;19049;52.524;11.468;2022-10-15T03:22:10;15.20;92.70
32640;DHT22;19049;52.524;11.468;2022-10-15T03:24:36;15.30;92.40
32640;DHT22;19049;52.524;11.468;2022-10-15T03:27:02;15.30;92.30
32640;DHT22;19049;52.524;11.468;2022-10-15T03:29:28;15.30;92.30
32640;DHT22;19049;52.524;11.468;2022-10-15T03:31:53;15.30;92.30
32640;DHT22;19049;52.524;11.468;2022-10-15T03:34:19;15.30;92.30
32640;DHT22;19049;52.524;11.468;2022-10-15T03:36:45;15.30;92.30
32640;DHT22;19049;52.524;11.468;2022-10-15T03:39:12;15.30;92.40
32640;DHT22;19049;52.524;11.468;2022-10-15T03:41:38;15.30;92.50
32640;DHT22;19049;52.524;11.468;2022-10-15T03:44:06;15.30;92.50
32640;DHT22;19049;52.524;11.468;2022-10-15T03:46:32;15.20;92.50
32640;DHT22;19049;52.524;11.468;2022-10-15T03:48:58;15.30;92.50
32640;DHT22;19049;52.524;11.468;2022-10-15T03:51:25;15.30;92.50
32640;DHT22;19049;52.524;11.468;2022-10-15T03:53:51;15.30;92.50
32640;DHT22;19049;52.524;11.468;2022-10-15T03:56:19;15.30;92.50
32640;DHT22;19049;52.524;11.468;2022-10-15T03:58:45;15.30;92.50
32640;DHT22;19049;52.524;11.468;2022-10-15T04:01:13;15.30;92.50
32640;DHT22;19049;52.524;11.468;2022-10-15T04:03:39;15.30;92.60
32640;DHT22;19049;52.524;11.468;2022-10-15T04:06:05;15.30;92.60
32640;DHT22;19049;52.524;11.468;2022-10-15T04:08:31;15.20;92.50
32640;DHT22;19049;52.524;11.468;2022-10-15T04:10:58;15.20;92.60
32640;DHT22;19049;52.524;11.468;2022-10-15T04:13:26;15.20;92.70
32640;DHT22;19049;52.524;11.468;2022-10-15T04:15:52;15.20;92.70
32640;DHT22;19049;52.524;11.468;2022-10-15T04:18:17;15.10;92.70
32640;DHT22;19049;52.524;11.468;2022-10-15T04:20:46;15.10;92.70
32640;DHT22;19049;52.524;11.468;2022-10-15T04:23:12;15.10;92.70
32640;DHT22;19049;52.524;11.468;2022-10-15T04:25:38;15.10;92.70
32640;DHT22;19049;52.524;11.468;2022-10-15T04:28:04;15.00;92.70
32640;DHT22;19049;52.524;11.468;2022-10-15T04:30:30;15.00;92.60
32640;DHT22;19049;52.524;11.468;2022-10-15T04:32:56;15.00;92.50
32640;DHT22;19049;52.524;11.468;2022-10-15T04:35:22;14.90;92.30
32640;DHT22;19049;52.524;11.468;2022-10-15T04:37:48;14.80;92.30
32640;DHT22;19049;52.524;11.468;2022-10-15T04:40:14;14.80;92.30
32640;DHT22;19049;52.524;11.468;2022-10-15T04:42:40;14.70;92.30
32640;DHT22;19049;52.524;11.468;2022-10-15T04:45:06;14.60;92.30
32640;DHT22;19049;52.524;11.468;2022-10-15T04:47:33;14.50;92.30
32640;DHT22;19049;52.524;11.468;2022-10-15T04:49:59;14.40;92.30
32640;DHT22;19049;52.524;11.468;2022-10-15T04:52:24;14.30;92.30
32640;DHT22;19049;52.524;11.468;2022-10-15T04:54:50;14.20;92.40
32640;DHT22;19049;52.524;11.468;2022-10-15T04:57:16;14.10;92.50
32640;DHT22;19049;52.524;11.468;2022-10-15T04:59:42;14.10;92.60
32640;DHT22;19049;52.524;11.468;2022-10-15T05:02:09;14.10;92.90
32640;DHT22;19049;52.524;11.468;2022-10-15T05:04:35;14.00;92.90
32640;DHT22;19049;52.524;11.468;2022-10-15T05:07:01;14.00;92.90
32640;DHT22;19049;52.524;11.468;2022-10-15T05:09:27;13.90;93.00
32640;DHT22;19049;52.524;11.468;2022-10-15T05:11:52;13.90;93.10
32640;DHT22;19049;52.524;11.468;2022-10-15T05:14:20;13.90;93.10
32640;DHT22;19049;52.524;11.468;2022-10-15T05:16:46;13.90;93.50
32640;DHT22;19049;52.524;11.468;2022-10-15T05:19:12;13.80;93.10
32640;DHT22;19049;52.524;11.468;2022-10-15T05:21:38;13.80;93.10
32640;DHT22;19049;52.524;11.468;2022-10-15T05:24:04;13.70;93.10
32640;DHT22;19049;52.524;11.468;2022-10-15T05:26:30;13.70;93.10
32640;DHT22;19049;52.524;11.468;2022-10-15T05:28:57;13.60;93.00
32640;DHT22;19049;52.524;11.468;2022-10-15T05:31:26;13.60;93.10
32640;DHT22;19049;52.524;11.468;2022-10-15T05:33:52;13.60;93.00
32640;DHT22;19049;52.524;11.468;2022-10-15T05:36:24;13.50;92.90
32640;DHT22;19049;52.524;11.468;2022-10-15T05:38:59;13.40;92.90
32640;DHT22;19049;52.524;11.468;2022-10-15T05:41:25;13.30;92.90
32640;DHT22;19049;52.524;11.468;2022-10-15T05:43:54;13.20;92.90
32640;DHT22;19049;52.524;11.468;2022-10-15T05:46:20;13.20;92.90
32640;DHT22;19049;52.524;11.468;2022-10-15T05:48:50;13.10;92.90
32640;DHT22;19049;52.524;11.468;2022-10-15T05:51:17;13.10;93.00
32640;DHT22;19049;52.524;11.468;2022-10-15T05:53:42;13.00;92.90
32640;DHT22;19049;52.524;11.468;2022-10-15T05:56:11;13.00;93.30
32640;DHT22;19049;52.524;11.468;2022-10-15T05:58:37;12.90;92.90
32640;DHT22;19049;52.524;11.468;2022-10-15T06:01:09;12.80;92.90
32640;DHT22;19049;52.524;11.468;2022-10-15T06:03:36;12.80;92.90
32640;DHT22;19049;52.524;11.468;2022-10-15T06:06:01;12.70;92.80
32640;DHT22;19049;52.524;11.468;2022-10-15T06:08:28;12.60;92.70
32640;DHT22;19049;52.524;11.468;2022-10-15T06:10:55;12.50;92.70
32640;DHT22;19049;52.524;11.468;2022-10-15T06:13:22;12.50;92.60
32640;DHT22;19049;52.524;11.468;2022-10-15T06:15:48;12.40;92.60
32640;DHT22;19049;52.524;11.468;2022-10-15T06:18:14;12.30;92.70
32640;DHT22;19049;52.524;11.468;2022-10-15T06:20:43;12.20;92.70
32640;DHT22;19049;52.524;11.468;2022-10-15T06:23:10;12.10;92.80
32640;DHT22;19049;52.524;11.468;2022-10-15T06:25:36;12.10;92.90
32640;DHT22;19049;52.524;11.468;2022-10-15T06:28:05;12.00;92.90
32640;DHT22;19049;52.524;11.468;2022-10-15T06:30:31;12.00;93.10
32640;DHT22;19049;52.524;11.468;2022-10-15T06:32:57;11.90;93.00
32640;DHT22;19049;52.524;11.468;2022-10-15T06:35:24;11.90;93.10
32640;DHT22;19049;52.524;11.468;2022-10-15T06:37:51;11.90;93.20
32640;DHT22;19049;52.524;11.468;2022-10-15T06:40:17;11.90;93.10
32640;DHT22;19049;52.524;11.468;2022-10-15T06:42:42;11.80;93.10
32640;DHT22;19049;52.524;11.468;2022-10-15T06:45:09;11.80;93.10
32640;DHT22;19049;52.524;11.468;2022-10-15T06:47:36;11.70;93.10
32640;DHT22;19049;52.524;11.468;2022-10-15T06:50:03;11.80;93.30
32640;DHT22;19049;52.524;11.468;2022-10-15T06:52:30;11.70;93.30
32640;DHT22;19049;52.524;11.468;2022-10-15T06:54:56;11.80;93.40
32640;DHT22;19049;52.524;11.468;2022-10-15T06:57:22;11.80;93.50
32640;DHT22;19049;52.524;11.468;2022-10-15T06:59:50;11.90;93.80
32640;DHT22;19049;52.524;11.468;2022-10-15T07:02:16;12.00;94.00
32640;DHT22;19049;52.524;11.468;2022-10-15T07:04:46;12.10;94.20
32640;DHT22;19049;52.524;11.468;2022-10-15T07:07:12;12.30;94.40
32640;DHT22;19049;52.524;11.468;2022-10-15T07:09:38;12.50;94.50
32640;DHT22;19049;52.524;11.468;2022-10-15T07:12:05;12.70;94.70
32640;DHT22;19049;52.524;11.468;2022-10-15T07:14:30;12.90;94.80
32640;DHT22;19049;52.524;11.468;2022-10-15T07:16:57;13.10;94.70
32640;DHT22;19049;52.524;11.468;2022-10-15T07:19:23;13.30;94.50
32640;DHT22;19049;52.524;11.468;2022-10-15T07:21:49;13.40;94.30
32640;DHT22;19049;52.524;11.468;2022-10-15T07:24:14;13.50;94.20
32640;DHT22;19049;52.524;11.468;2022-10-15T07:26:40;13.60;94.10
32640;DHT22;19049;52.524;11.468;2022-10-15T07:29:05;13.70;94.10
32640;DHT22;19049;52.524;11.468;2022-10-15T07:31:32;13.80;94.10
32640;DHT22;19049;52.524;11.468;2022-10-15T07:33:58;13.90;94.20
32640;DHT22;19049;52.524;11.468;2022-10-15T07:36:24;14.00;94.40
32640;DHT22;19049;52.524;11.468;2022-10-15T07:38:50;14.20;94.50
32640;DHT22;19049;52.524;11.468;2022-10-15T07:41:16;14.40;94.60
32640;DHT22;19049;52.524;11.468;2022-10-15T07:43:42;14.60;94.70
32640;DHT22;19049;52.524;11.468;2022-10-15T07:46:07;14.70;94.70
32640;DHT22;19049;52.524;11.468;2022-10-15T07:48:33;15.00;94.70
32640;DHT22;19049;52.524;11.468;2022-10-15T07:51:02;15.10;94.50
32640;DHT22;19049;52.524;11.468;2022-10-15T07:53:29;15.30;94.40
32640;DHT22;19049;52.524;11.468;2022-10-15T07:56:04;15.50;94.40
32640;DHT22;19049;52.524;11.468;2022-10-15T07:58:31;15.60;94.40
32640;DHT22;19049;52.524;11.468;2022-10-15T08:01:00;15.80;94.50
32640;DHT22;19049;52.524;11.468;2022-10-15T08:03:26;16.00;94.50
32640;DHT22;19049;52.524;11.468;2022-10-15T08:05:52;16.30;94.60
32640;DHT22;19049;52.524;11.468;2022-10-15T08:08:19;16.50;94.60
32640;DHT22;19049;52.524;11.468;2022-10-15T08:10:45;16.80;94.50
32640;DHT22;19049;52.524;11.468;2022-10-15T08:13:11;17.10;94.30
32640;DHT22;19049;52.524;11.468;2022-10-15T08:15:41;17.30;94.00
32640;DHT22;19049;52.524;11.468;2022-10-15T08:18:07;17.60;93.80
32640;DHT22;19049;52.524;11.468;2022-10-15T08:20:35;17.80;93.80
32640;DHT22;19049;52.524;11.468;2022-10-15T08:23:01;17.90;93.50
32640;DHT22;19049;52.524;11.468;2022-10-15T08:25:27;18.10;93.10
32640;DHT22;19049;52.524;11.468;2022-10-15T08:27:53;18.30;92.40
32640;DHT22;19049;52.524;11.468;2022-10-15T08:30:19;18.40;92.50
32640;DHT22;19049;52.524;11.468;2022-10-15T08:32:44;18.50;92.00
32640;DHT22;19049;52.524;11.468;2022-10-15T08:35:10;18.50;91.80
32640;DHT22;19049;52.524;11.468;2022-10-15T08:37:36;18.50;91.60
32640;DHT22;19049;52.524;11.468;2022-10-15T08:40:03;18.60;91.60
32640;DHT22;19049;52.524;11.468;2022-10-15T08:42:40;18.60;91.30
32640;DHT22;19049;52.524;11.468;2022-10-15T08:45:15;18.70;91.10
32640;DHT22;19049;52.524;11.468;2022-10-15T08:47:46;18.70;91.50
32640;DHT22;19049;52.524;11.468;2022-10-15T08:50:34;18.70;91.00
32640;DHT22;19049;52.524;11.468;2022-10-15T08:53:03;18.80;91.30
32640;DHT22;19049;52.524;11.468;2022-10-15T08:55:34;18.90;90.80
32640;DHT22;19049;52.524;11.468;2022-10-15T08:58:18;18.90;90.50
32640;DHT22;19049;52.524;11.468;2022-10-15T09:00:57;18.90;90.60
32640;DHT22;19049;52.524;11.468;2022-10-15T09:03:50;19.00;90.40
32640;DHT22;19049;52.524;11.468;2022-10-15T09:14:38;19.20;90.40
32640;DHT22;19049;52.524;11.468;2022-10-15T09:17:23;19.20;88.70
32640;DHT22;19049;52.524;11.468;2022-10-15T09:19:53;19.30;89.60
32640;DHT22;19049;52.524;11.468;2022-10-15T09:22:24;19.30;90.10
32640;DHT22;19049;52.524;11.468;2022-10-15T09:24:51;19.30;89.20
32640;DHT22;19049;52.524;11.468;2022-10-15T09:27:34;19.30;89.40
32640;DHT22;19049;52.524;11.468;2022-10-15T09:30:18;19.20;88.40
32640;DHT22;19049;52.524;11.468;2022-10-15T09:35:25;19.20;89.40
32640;DHT22;19049;52.524;11.468;2022-10-15T09:38:10;19.20;90.00
32640;DHT22;19049;52.524;11.468;2022-10-15T09:43:29;19.30;88.20
32640;DHT22;19049;52.524;11.468;2022-10-15T09:45:58;19.30;90.00
32640;DHT22;19049;52.524;11.468;2022-10-15T09:48:24;19.30;88.10
32640;DHT22;19049;52.524;11.468;2022-10-15T09:56:23;19.30;87.60
32640;DHT22;19049;52.524;11.468;2022-10-15T09:58:51;19.30;88.30
32640;DHT22;19049;52.524;11.468;2022-10-15T10:01:20;19.40;88.90
32640;DHT22;19049;52.524;11.468;2022-10-15T10:03:52;19.40;88.40
32640;DHT22;19049;52.524;11.468;2022-10-15T10:06:18;19.50;86.90
32640;DHT22;19049;52.524;11.468;2022-10-15T10:08:56;19.40;88.10
32640;DHT22;19049;52.524;11.468;2022-10-15T10:11:24;19.50;88.30
32640;DHT22;19049;52.524;11.468;2022-10-15T10:13:54;19.60;89.10
32640;DHT22;19049;52.524;11.468;2022-10-15T10:16:20;19.60;89.10
32640;DHT22;19049;52.524;11.468;2022-10-15T10:19:12;19.70;89.10
32640;DHT22;19049;52.524;11.468;2022-10-15T10:21:39;19.80;88.60
32640;DHT22;19049;52.524;11.468;2022-10-15T10:26:49;20.00;87.60
32640;DHT22;19049;52.524;11.468;2022-10-15T10:29:18;20.10;88.50
32640;DHT22;19049;52.524;11.468;2022-10-15T10:31:46;20.10;87.60
32640;DHT22;19049;52.524;11.468;2022-10-15T10:34:27;20.20;87.10
32640;DHT22;19049;52.524;11.468;2022-10-15T10:36:53;20.20;87.30
32640;DHT22;19049;52.524;11.468;2022-10-15T10:39:29;20.30;87.80
32640;DHT22;19049;52.524;11.468;2022-10-15T10:42:03;20.30;85.50
32640;DHT22;19049;52.524;11.468;2022-10-15T10:44:32;20.40;86.50
32640;DHT22;19049;52.524;11.468;2022-10-15T10:47:21;20.40;86.20
32640;DHT22;19049;52.524;11.468;2022-10-15T10:49:56;20.50;86.70
32640;DHT22;19049;52.524;11.468;2022-10-15T10:52:36;20.60;86.60
32640;DHT22;19049;52.524;11.468;2022-10-15T10:57:54;20.80;86.80
32640;DHT22;19049;52.524;11.468;2022-10-15T11:00:37;20.90;86.70
32640;DHT22;19049;52.524;11.468;2022-10-15T11:03:04;21.00;86.30
32640;DHT22;19049;52.524;11.468;2022-10-15T11:05:33;21.10;85.50
32640;DHT22;19049;52.524;11.468;2022-10-15T11:11:11;21.30;86.00
32640;DHT22;19049;52.524;11.468;2022-10-15T11:14:54;21.40;85.50
32640;DHT22;19049;52.524;11.468;2022-10-15T11:17:19;21.70;80.20
32640;DHT22;19049;52.524;11.468;2022-10-15T11:20:19;21.90;82.70
32640;DHT22;19049;52.524;11.468;2022-10-15T11:36:06;22.40;81.30
32640;DHT22;19049;52.524;11.468;2022-10-15T11:41:53;22.30;81.70
32640;DHT22;19049;52.524;11.468;2022-10-15T11:50:33;22.30;80.30
32640;DHT22;19049;52.524;11.468;2022-10-15T11:55:59;22.20;80.00
32640;DHT22;19049;52.524;11.468;2022-10-15T12:03:54;21.90;80.80
32640;DHT22;19049;52.524;11.468;2022-10-15T12:06:22;21.90;80.30
32640;DHT22;19049;52.524;11.468;2022-10-15T12:08:49;21.80;80.90
32640;DHT22;19049;52.524;11.468;2022-10-15T12:11:26;21.90;82.40
32640;DHT22;19049;52.524;11.468;2022-10-15T12:14:30;22.00;81.50
32640;DHT22;19049;52.524;11.468;2022-10-15T12:17:22;22.10;81.80
32640;DHT22;19049;52.524;11.468;2022-10-15T12:19:59;22.20;80.80
32640;DHT22;19049;52.524;11.468;2022-10-15T12:22:38;22.20;80.90
32640;DHT22;19049;52.524;11.468;2022-10-15T12:25:07;22.20;80.70
32640;DHT22;19049;52.524;11.468;2022-10-15T12:30:31;22.20;80.60
32640;DHT22;19049;52.524;11.468;2022-10-15T12:33:00;22.20;80.20
32640;DHT22;19049;52.524;11.468;2022-10-15T12:35:34;22.20;80.90
32640;DHT22;19049;52.524;11.468;2022-10-15T12:41:09;22.20;79.00
32640;DHT22;19049;52.524;11.468;2022-10-15T12:43:44;22.20;79.30
32640;DHT22;19049;52.524;11.468;2022-10-15T12:46:12;22.20;80.50
32640;DHT22;19049;52.524;11.468;2022-10-15T12:48:43;22.40;81.10
32640;DHT22;19049;52.524;11.468;2022-10-15T12:53:46;23.10;78.60
32640;DHT22;19049;52.524;11.468;2022-10-15T13:11:50;25.20;68.30
32640;DHT22;19049;52.524;11.468;2022-10-15T13:16:50;25.70;70.10
32640;DHT22;19049;52.524;11.468;2022-10-15T13:19:20;25.80;68.00
32640;DHT22;19049;52.524;11.468;2022-10-15T13:21:52;25.90;67.30
32640;DHT22;19049;52.524;11.468;2022-10-15T13:24:23;25.90;66.90
32640;DHT22;19049;52.524;11.468;2022-10-15T13:26:58;25.60;67.00
32640;DHT22;19049;52.524;11.468;2022-10-15T13:29:26;25.30;67.90
32640;DHT22;19049;52.524;11.468;2022-10-15T13:31:54;25.00;67.40
32640;DHT22;19049;52.524;11.468;2022-10-15T13:34:35;24.60;68.90
32640;DHT22;19049;52.524;11.468;2022-10-15T13:37:03;24.20;68.70
32640;DHT22;19049;52.524;11.468;2022-10-15T13:39:37;24.00;70.70
32640;DHT22;19049;52.524;11.468;2022-10-15T13:42:22;23.70;70.60
32640;DHT22;19049;52.524;11.468;2022-10-15T13:45:17;23.50;71.40
32640;DHT22;19049;52.524;11.468;2022-10-15T13:47:48;23.30;69.20
32640;DHT22;19049;52.524;11.468;2022-10-15T13:50:33;23.10;72.30
32640;DHT22;19049;52.524;11.468;2022-10-15T13:55:47;23.10;73.60
32640;DHT22;19049;52.524;11.468;2022-10-15T13:58:26;23.20;73.80
32640;DHT22;19049;52.524;11.468;2022-10-15T14:01:00;23.30;73.50
32640;DHT22;19049;52.524;11.468;2022-10-15T14:03:31;23.30;73.80
32640;DHT22;19049;52.524;11.468;2022-10-15T14:06:15;23.50;73.80
32640;DHT22;19049;52.524;11.468;2022-10-15T14:08:42;23.60;72.50
32640;DHT22;19049;52.524;11.468;2022-10-15T14:11:10;23.90;72.30
32640;DHT22;19049;52.524;11.468;2022-10-15T14:13:43;24.10;71.70
32640;DHT22;19049;52.524;11.468;2022-10-15T14:18:55;24.50;70.30
32640;DHT22;19049;52.524;11.468;2022-10-15T14:21:23;24.50;67.70
32640;DHT22;19049;52.524;11.468;2022-10-15T14:24:23;24.60;69.00
32640;DHT22;19049;52.524;11.468;2022-10-15T14:26:51;24.60;68.10
32640;DHT22;19049;52.524;11.468;2022-10-15T14:29:38;24.40;68.80
32640;DHT22;19049;52.524;11.468;2022-10-15T14:32:18;24.20;69.00
32640;DHT22;19049;52.524;11.468;2022-10-15T14:34:45;23.90;69.90
32640;DHT22;19049;52.524;11.468;2022-10-15T14:37:40;23.70;70.40
32640;DHT22;19049;52.524;11.468;2022-10-15T14:42:33;23.30;71.80
32640;DHT22;19049;52.524;11.468;2022-10-15T14:45:12;23.30;72.80
32640;DHT22;19049;52.524;11.468;2022-10-15T14:47:39;23.50;72.30
32640;DHT22;19049;52.524;11.468;2022-10-15T14:50:05;23.70;72.60
32640;DHT22;19049;52.524;11.468;2022-10-15T14:52:31;23.90;70.90
32640;DHT22;19049;52.524;11.468;2022-10-15T14:55:06;23.90;70.50
32640;DHT22;19049;52.524;11.468;2022-10-15T14:57:38;23.80;69.30
32640;DHT22;19049;52.524;11.468;2022-10-15T15:00:19;23.70;69.00
32640;DHT22;19049;52.524;11.468;2022-10-15T15:02:47;23.50;69.60
32640;DHT22;19049;52.524;11.468;2022-10-15T15:07:39;23.40;70.50
32640;DHT22;19049;52.524;11.468;2022-10-15T15:10:07;23.50;70.20
32640;DHT22;19049;52.524;11.468;2022-10-15T15:12:33;23.50;70.60
32640;DHT22;19049;52.524;11.468;2022-10-15T15:14:59;23.70;70.40
32640;DHT22;19049;52.524;11.468;2022-10-15T15:17:29;23.80;69.80
32640;DHT22;19049;52.524;11.468;2022-10-15T15:19:56;23.90;69.30
32640;DHT22;19049;52.524;11.468;2022-10-15T15:22:30;23.80;69.20
32640;DHT22;19049;52.524;11.468;2022-10-15T15:24:59;23.70;68.40
32640;DHT22;19049;52.524;11.468;2022-10-15T15:27:27;23.50;68.60
32640;DHT22;19049;52.524;11.468;2022-10-15T15:29:54;23.20;69.10
32640;DHT22;19049;52.524;11.468;2022-10-15T15:32:21;22.90;69.60
32640;DHT22;19049;52.524;11.468;2022-10-15T15:34:47;22.60;69.20
32640;DHT22;19049;52.524;11.468;2022-10-15T15:37:16;22.40;70.50
32640;DHT22;19049;52.524;11.468;2022-10-15T15:39:42;22.20;71.00
32640;DHT22;19049;52.524;11.468;2022-10-15T15:42:11;21.90;71.50
32640;DHT22;19049;52.524;11.468;2022-10-15T15:44:37;21.70;72.20
32640;DHT22;19049;52.524;11.468;2022-10-15T15:47:03;21.40;72.60
32640;DHT22;19049;52.524;11.468;2022-10-15T15:49:28;21.20;73.00
32640;DHT22;19049;52.524;11.468;2022-10-15T15:51:54;21.00;73.20
32640;DHT22;19049;52.524;11.468;2022-10-15T15:54:19;20.80;73.80
32640;DHT22;19049;52.524;11.468;2022-10-15T15:56:45;20.60;74.10
32640;DHT22;19049;52.524;11.468;2022-10-15T15:59:11;20.40;74.50
32640;DHT22;19049;52.524;11.468;2022-10-15T16:01:37;20.20;75.00
32640;DHT22;19049;52.524;11.468;2022-10-15T16:04:02;20.00;75.30
32640;DHT22;19049;52.524;11.468;2022-10-15T16:06:28;19.80;75.60
32640;DHT22;19049;52.524;11.468;2022-10-15T16:08:54;19.70;75.90
32640;DHT22;19049;52.524;11.468;2022-10-15T16:11:20;19.50;76.20
32640;DHT22;19049;52.524;11.468;2022-10-15T16:13:48;19.40;76.70
32640;DHT22;19049;52.524;11.468;2022-10-15T16:16:14;19.30;77.10
32640;DHT22;19049;52.524;11.468;2022-10-15T16:18:40;19.20;77.60
32640;DHT22;19049;52.524;11.468;2022-10-15T16:21:06;19.10;78.00
32640;DHT22;19049;52.524;11.468;2022-10-15T16:23:31;19.00;78.40
32640;DHT22;19049;52.524;11.468;2022-10-15T16:25:57;19.00;78.50
32640;DHT22;19049;52.524;11.468;2022-10-15T16:28:23;18.90;78.80
32640;DHT22;19049;52.524;11.468;2022-10-15T16:30:49;18.80;79.10
32640;DHT22;19049;52.524;11.468;2022-10-15T16:33:14;18.80;79.60
32640;DHT22;19049;52.524;11.468;2022-10-15T16:35:40;18.80;79.80
32640;DHT22;19049;52.524;11.468;2022-10-15T16:38:06;18.80;80.10
32640;DHT22;19049;52.524;11.468;2022-10-15T16:40:32;18.70;80.00
32640;DHT22;19049;52.524;11.468;2022-10-15T16:42:58;18.70;80.40
32640;DHT22;19049;52.524;11.468;2022-10-15T16:45:25;18.70;80.60
32640;DHT22;19049;52.524;11.468;2022-10-15T16:47:50;18.60;80.60
32640;DHT22;19049;52.524;11.468;2022-10-15T16:50:16;18.60;80.80
32640;DHT22;19049;52.524;11.468;2022-10-15T16:52:42;18.60;80.90
32640;DHT22;19049;52.524;11.468;2022-10-15T16:55:08;18.70;81.10
32640;DHT22;19049;52.524;11.468;2022-10-15T16:57:34;18.70;81.10
32640;DHT22;19049;52.524;11.468;2022-10-15T17:00:00;18.70;81.20
32640;DHT22;19049;52.524;11.468;2022-10-15T17:02:26;18.70;81.30
32640;DHT22;19049;52.524;11.468;2022-10-15T17:04:51;18.70;81.30
32640;DHT22;19049;52.524;11.468;2022-10-15T17:07:17;18.70;81.40
32640;DHT22;19049;52.524;11.468;2022-10-15T17:09:43;18.80;81.50
32640;DHT22;19049;52.524;11.468;2022-10-15T17:12:10;18.80;81.40
32640;DHT22;19049;52.524;11.468;2022-10-15T17:14:36;18.80;81.30
32640;DHT22;19049;52.524;11.468;2022-10-15T17:17:02;18.80;81.30